sensor_id;sensor_type;location;lat;lon;timestamp;P1;durP1;ratioP1;P2;durP2;ratioP2
57317;SDS011;43157;50.982;18.132;2023-07-31T00:00:49;7.40;;;1.70;;
57317;SDS011;43157;50.982;18.132;2023-07-31T00:03:14;6.80;;;1.70;;
57317;SDS011;43157;50.982;18.132;2023-07-31T00:05:40;5.10;;;1.80;;
57317;SDS011;43157;50.982;18.132;2023-07-31T00:08:06;6.20;;;1.80;;
57317;SDS011;43157;50.982;18.132;2023-07-31T00:10:31;7.80;;;1.90;;
57317;SDS011;43157;50.982;18.132;2023-07-31T00:12:58;6.50;;;2.20;;
57317;SDS011;43157;50.982;18.132;2023-07-31T00:15:24;8.80;;;2.10;;
57317;SDS011;43157;50.982;18.132;2023-07-31T00:17:50;6.70;;;2.10;;
57317;SDS011;43157;50.982;18.132;2023-07-31T00:20:15;9.10;;;2.20;;
57317;SDS011;43157;50.982;18.132;2023-07-31T00:22:41;7.00;;;1.70;;
57317;SDS011;43157;50.982;18.132;2023-07-31T00:25:07;9.90;;;2.10;;
57317;SDS011;43157;50.982;18.132;2023-07-31T00:27:32;7.50;;;2.50;;
57317;SDS011;43157;50.982;18.132;2023-07-31T00:29:58;5.70;;;1.90;;
57317;SDS011;43157;50.982;18.132;2023-07-31T00:32:24;10.30;;;2.00;;
57317;SDS011;43157;50.982;18.132;2023-07-31T00:34:50;6.50;;;1.60;;
57317;SDS011;43157;50.982;18.132;2023-07-31T00:37:15;3.90;;;1.40;;
57317;SDS011;43157;50.982;18.132;2023-07-31T00:39:41;8.20;;;1.90;;
57317;SDS011;43157;50.982;18.132;2023-07-31T00:42:07;7.20;;;1.90;;
57317;SDS011;43157;50.982;18.132;2023-07-31T00:44:33;5.20;;;1.90;;
57317;SDS011;43157;50.982;18.132;2023-07-31T00:46:59;7.40;;;1.90;;
57317;SDS011;43157;50.982;18.132;2023-07-31T00:49:25;7.10;;;2.10;;
57317;SDS011;43157;50.982;18.132;2023-07-31T00:51:51;7.30;;;2.20;;
57317;SDS011;43157;50.982;18.132;2023-07-31T00:54:17;6.90;;;2.60;;
57317;SDS011;43157;50.982;18.132;2023-07-31T00:56:44;7.90;;;2.40;;
57317;SDS011;43157;50.982;18.132;2023-07-31T00:59:11;6.70;;;2.10;;
57317;SDS011;43157;50.982;18.132;2023-07-31T01:01:37;5.80;;;2.10;;
57317;SDS011;43157;50.982;18.132;2023-07-31T01:04:03;7.80;;;2.10;;
57317;SDS011;43157;50.982;18.132;2023-07-31T01:06:35;9.00;;;2.60;;
57317;SDS011;43157;50.982;18.132;2023-07-31T01:09:06;9.20;;;2.70;;
57317;SDS011;43157;50.982;18.132;2023-07-31T01:11:37;8.20;;;3.10;;
57317;SDS011;43157;50.982;18.132;2023-07-31T01:14:05;7.60;;;3.00;;
57317;SDS011;43157;50.982;18.132;2023-07-31T01:16:31;9.60;;;2.60;;
57317;SDS011;43157;50.982;18.132;2023-07-31T01:18:57;7.20;;;2.20;;
57317;SDS011;43157;50.982;18.132;2023-07-31T01:21:28;6.80;;;1.90;;
57317;SDS011;43157;50.982;18.132;2023-07-31T01:26:59;9.10;;;2.60;;
57317;SDS011;43157;50.982;18.132;2023-07-31T01:32:28;8.10;;;2.30;;
57317;SDS011;43157;50.982;18.132;2023-07-31T01:34:54;6.30;;;2.50;;
57317;SDS011;43157;50.982;18.132;2023-07-31T01:37:20;7.90;;;2.60;;
57317;SDS011;43157;50.982;18.132;2023-07-31T01:39:46;7.60;;;2.40;;
57317;SDS011;43157;50.982;18.132;2023-07-31T01:42:11;8.50;;;2.40;;
57317;SDS011;43157;50.982;18.132;2023-07-31T01:44:37;7.20;;;2.50;;
57317;SDS011;43157;50.982;18.132;2023-07-31T01:47:03;7.00;;;2.70;;
57317;SDS011;43157;50.982;18.132;2023-07-31T01:49:29;9.80;;;3.00;;
57317;SDS011;43157;50.982;18.132;2023-07-31T01:51:54;10.80;;;3.40;;
57317;SDS011;43157;50.982;18.132;2023-07-31T01:54:20;10.00;;;2.90;;
57317;SDS011;43157;50.982;18.132;2023-07-31T01:56:45;7.70;;;3.70;;
57317;SDS011;43157;50.982;18.132;2023-07-31T01:59:11;9.60;;;4.10;;
57317;SDS011;43157;50.982;18.132;2023-07-31T02:01:37;8.60;;;3.30;;
57317;SDS011;43157;50.982;18.132;2023-07-31T02:04:02;8.60;;;3.00;;
57317;SDS011;43157;50.982;18.132;2023-07-31T02:06:30;6.40;;;1.70;;
57317;SDS011;43157;50.982;18.132;2023-07-31T02:08:55;7.10;;;2.30;;
57317;SDS011;43157;50.982;18.132;2023-07-31T02:11:21;7.30;;;1.60;;
57317;SDS011;43157;50.982;18.132;2023-07-31T02:13:47;7.90;;;1.60;;
57317;SDS011;43157;50.982;18.132;2023-07-31T02:16:13;7.90;;;1.60;;
57317;SDS011;43157;50.982;18.132;2023-07-31T02:18:38;7.70;;;1.60;;
57317;SDS011;43157;50.982;18.132;2023-07-31T02:21:04;7.90;;;1.90;;
57317;SDS011;43157;50.982;18.132;2023-07-31T02:23:30;7.30;;;1.50;;
57317;SDS011;43157;50.982;18.132;2023-07-31T02:25:56;6.30;;;1.50;;
57317;SDS011;43157;50.982;18.132;2023-07-31T02:28:21;6.50;;;1.60;;
57317;SDS011;43157;50.982;18.132;2023-07-31T02:30:47;4.80;;;1.80;;
57317;SDS011;43157;50.982;18.132;2023-07-31T02:33:14;4.30;;;1.40;;
57317;SDS011;43157;50.982;18.132;2023-07-31T02:35:40;7.90;;;1.70;;
57317;SDS011;43157;50.982;18.132;2023-07-31T02:38:05;6.80;;;1.60;;
57317;SDS011;43157;50.982;18.132;2023-07-31T02:40:31;7.30;;;1.90;;
57317;SDS011;43157;50.982;18.132;2023-07-31T02:42:56;5.90;;;1.70;;
57317;SDS011;43157;50.982;18.132;2023-07-31T02:45:22;7.10;;;1.50;;
57317;SDS011;43157;50.982;18.132;2023-07-31T02:47:48;8.30;;;1.80;;
57317;SDS011;43157;50.982;18.132;2023-07-31T02:50:13;8.20;;;2.00;;
57317;SDS011;43157;50.982;18.132;2023-07-31T02:52:39;7.50;;;1.70;;
57317;SDS011;43157;50.982;18.132;2023-07-31T02:55:05;9.30;;;2.60;;
57317;SDS011;43157;50.982;18.132;2023-07-31T02:57:31;7.50;;;2.10;;
57317;SDS011;43157;50.982;18.132;2023-07-31T02:59:57;8.10;;;1.70;;
57317;SDS011;43157;50.982;18.132;2023-07-31T03:02:22;6.00;;;1.70;;
57317;SDS011;43157;50.982;18.132;2023-07-31T03:04:48;6.90;;;1.80;;
57317;SDS011;43157;50.982;18.132;2023-07-31T03:07:14;6.20;;;1.60;;
57317;SDS011;43157;50.982;18.132;2023-07-31T03:09:39;10.20;;;1.70;;
57317;SDS011;43157;50.982;18.132;2023-07-31T03:12:05;9.80;;;1.80;;
57317;SDS011;43157;50.982;18.132;2023-07-31T03:14:31;7.50;;;1.90;;
57317;SDS011;43157;50.982;18.132;2023-07-31T03:16:57;7.10;;;1.90;;
57317;SDS011;43157;50.982;18.132;2023-07-31T03:19:23;5.50;;;1.70;;
57317;SDS011;43157;50.982;18.132;2023-07-31T03:21:48;6.70;;;1.40;;
57317;SDS011;43157;50.982;18.132;2023-07-31T03:24:14;6.50;;;1.80;;
57317;SDS011;43157;50.982;18.132;2023-07-31T03:26:39;8.10;;;1.60;;
57317;SDS011;43157;50.982;18.132;2023-07-31T03:29:07;9.20;;;1.80;;
57317;SDS011;43157;50.982;18.132;2023-07-31T03:31:33;5.80;;;1.80;;
57317;SDS011;43157;50.982;18.132;2023-07-31T03:33:59;7.30;;;2.10;;
57317;SDS011;43157;50.982;18.132;2023-07-31T03:36:24;6.20;;;1.60;;
57317;SDS011;43157;50.982;18.132;2023-07-31T03:38:51;8.30;;;1.90;;
57317;SDS011;43157;50.982;18.132;2023-07-31T03:41:17;9.10;;;2.00;;
57317;SDS011;43157;50.982;18.132;2023-07-31T03:43:44;10.60;;;2.10;;
57317;SDS011;43157;50.982;18.132;2023-07-31T03:46:14;10.00;;;2.00;;
57317;SDS011;43157;50.982;18.132;2023-07-31T03:48:40;7.00;;;1.80;;
57317;SDS011;43157;50.982;18.132;2023-07-31T03:51:05;5.60;;;1.80;;
57317;SDS011;43157;50.982;18.132;2023-07-31T03:53:31;8.40;;;1.90;;
57317;SDS011;43157;50.982;18.132;2023-07-31T03:55:57;5.90;;;1.70;;
57317;SDS011;43157;50.982;18.132;2023-07-31T03:58:22;8.10;;;1.70;;
57317;SDS011;43157;50.982;18.132;2023-07-31T04:13:59;9.30;;;1.60;;
57317;SDS011;43157;50.982;18.132;2023-07-31T04:16:25;7.10;;;1.60;;
57317;SDS011;43157;50.982;18.132;2023-07-31T04:18:51;9.60;;;1.80;;
57317;SDS011;43157;50.982;18.132;2023-07-31T04:21:16;11.30;;;1.90;;
57317;SDS011;43157;50.982;18.132;2023-07-31T04:23:43;8.00;;;1.70;;
57317;SDS011;43157;50.982;18.132;2023-07-31T04:26:08;8.40;;;1.60;;
57317;SDS011;43157;50.982;18.132;2023-07-31T04:28:34;7.30;;;1.40;;
57317;SDS011;43157;50.982;18.132;2023-07-31T04:30:59;6.80;;;1.40;;
57317;SDS011;43157;50.982;18.132;2023-07-31T04:33:25;10.60;;;1.80;;
57317;SDS011;43157;50.982;18.132;2023-07-31T04:35:51;9.00;;;2.00;;
57317;SDS011;43157;50.982;18.132;2023-07-31T04:38:20;9.70;;;1.60;;
57317;SDS011;43157;50.982;18.132;2023-07-31T04:40:46;8.10;;;1.60;;
57317;SDS011;43157;50.982;18.132;2023-07-31T04:43:12;6.70;;;1.50;;
57317;SDS011;43157;50.982;18.132;2023-07-31T04:45:38;6.90;;;1.30;;
57317;SDS011;43157;50.982;18.132;2023-07-31T04:48:03;5.50;;;1.50;;
57317;SDS011;43157;50.982;18.132;2023-07-31T04:50:29;6.50;;;1.60;;
57317;SDS011;43157;50.982;18.132;2023-07-31T04:52:56;6.50;;;1.40;;
57317;SDS011;43157;50.982;18.132;2023-07-31T04:55:21;5.50;;;1.30;;
57317;SDS011;43157;50.982;18.132;2023-07-31T04:57:47;6.30;;;1.40;;
57317;SDS011;43157;50.982;18.132;2023-07-31T05:00:13;7.00;;;1.60;;
57317;SDS011;43157;50.982;18.132;2023-07-31T05:02:39;9.40;;;1.70;;
57317;SDS011;43157;50.982;18.132;2023-07-31T05:05:04;9.10;;;1.50;;
57317;SDS011;43157;50.982;18.132;2023-07-31T05:07:30;8.10;;;1.70;;
57317;SDS011;43157;50.982;18.132;2023-07-31T05:09:56;6.70;;;2.00;;
57317;SDS011;43157;50.982;18.132;2023-07-31T05:12:21;8.90;;;1.80;;
57317;SDS011;43157;50.982;18.132;2023-07-31T05:14:47;6.70;;;1.40;;
57317;SDS011;43157;50.982;18.132;2023-07-31T05:17:13;6.90;;;1.60;;
57317;SDS011;43157;50.982;18.132;2023-07-31T05:19:38;9.40;;;2.10;;
57317;SDS011;43157;50.982;18.132;2023-07-31T05:22:04;9.30;;;1.60;;
57317;SDS011;43157;50.982;18.132;2023-07-31T05:24:30;6.50;;;1.50;;
57317;SDS011;43157;50.982;18.132;2023-07-31T05:26:56;8.30;;;2.20;;
57317;SDS011;43157;50.982;18.132;2023-07-31T05:29:21;7.80;;;1.80;;
57317;SDS011;43157;50.982;18.132;2023-07-31T05:31:47;5.70;;;1.20;;
57317;SDS011;43157;50.982;18.132;2023-07-31T05:34:12;8.50;;;1.70;;
57317;SDS011;43157;50.982;18.132;2023-07-31T05:36:38;7.10;;;1.50;;
57317;SDS011;43157;50.982;18.132;2023-07-31T05:39:03;6.00;;;1.40;;
57317;SDS011;43157;50.982;18.132;2023-07-31T05:41:33;6.40;;;1.30;;
57317;SDS011;43157;50.982;18.132;2023-07-31T05:43:58;7.60;;;1.50;;
57317;SDS011;43157;50.982;18.132;2023-07-31T05:46:24;6.30;;;1.60;;
57317;SDS011;43157;50.982;18.132;2023-07-31T05:48:49;6.90;;;1.30;;
57317;SDS011;43157;50.982;18.132;2023-07-31T05:51:15;8.60;;;1.40;;
57317;SDS011;43157;50.982;18.132;2023-07-31T05:53:41;8.90;;;2.10;;
57317;SDS011;43157;50.982;18.132;2023-07-31T05:56:07;7.00;;;2.20;;
57317;SDS011;43157;50.982;18.132;2023-07-31T05:58:33;7.60;;;1.40;;
57317;SDS011;43157;50.982;18.132;2023-07-31T06:00:58;9.50;;;1.40;;
57317;SDS011;43157;50.982;18.132;2023-07-31T06:03:24;11.20;;;1.40;;
57317;SDS011;43157;50.982;18.132;2023-07-31T06:05:49;7.10;;;1.70;;
57317;SDS011;43157;50.982;18.132;2023-07-31T06:08:15;8.90;;;1.40;;
57317;SDS011;43157;50.982;18.132;2023-07-31T06:10:41;7.80;;;1.50;;
57317;SDS011;43157;50.982;18.132;2023-07-31T06:13:06;8.10;;;1.40;;
57317;SDS011;43157;50.982;18.132;2023-07-31T06:15:33;6.80;;;1.30;;
57317;SDS011;43157;50.982;18.132;2023-07-31T06:17:59;7.40;;;1.40;;
57317;SDS011;43157;50.982;18.132;2023-07-31T06:20:27;9.70;;;1.20;;
57317;SDS011;43157;50.982;18.132;2023-07-31T06:22:53;9.00;;;1.30;;
57317;SDS011;43157;50.982;18.132;2023-07-31T06:25:19;4.60;;;1.30;;
57317;SDS011;43157;50.982;18.132;2023-07-31T06:27:44;10.00;;;1.90;;
57317;SDS011;43157;50.982;18.132;2023-07-31T06:30:11;9.00;;;1.30;;
57317;SDS011;43157;50.982;18.132;2023-07-31T06:32:37;6.40;;;1.20;;
57317;SDS011;43157;50.982;18.132;2023-07-31T06:35:03;6.90;;;1.40;;
57317;SDS011;43157;50.982;18.132;2023-07-31T06:37:29;6.30;;;1.30;;
57317;SDS011;43157;50.982;18.132;2023-07-31T06:39:54;6.40;;;1.40;;
57317;SDS011;43157;50.982;18.132;2023-07-31T06:42:21;5.00;;;1.20;;
57317;SDS011;43157;50.982;18.132;2023-07-31T06:44:46;9.20;;;1.60;;
57317;SDS011;43157;50.982;18.132;2023-07-31T06:47:12;7.00;;;1.20;;
57317;SDS011;43157;50.982;18.132;2023-07-31T06:49:38;5.50;;;1.20;;
57317;SDS011;43157;50.982;18.132;2023-07-31T06:52:03;8.80;;;1.50;;
57317;SDS011;43157;50.982;18.132;2023-07-31T06:54:30;5.30;;;1.50;;
57317;SDS011;43157;50.982;18.132;2023-07-31T06:56:56;9.60;;;1.40;;
57317;SDS011;43157;50.982;18.132;2023-07-31T06:59:21;6.20;;;1.20;;
57317;SDS011;43157;50.982;18.132;2023-07-31T07:01:47;7.80;;;1.60;;
57317;SDS011;43157;50.982;18.132;2023-07-31T07:04:13;8.60;;;1.20;;
57317;SDS011;43157;50.982;18.132;2023-07-31T07:06:39;8.80;;;1.60;;
57317;SDS011;43157;50.982;18.132;2023-07-31T07:09:04;7.90;;;1.30;;
57317;SDS011;43157;50.982;18.132;2023-07-31T07:11:30;9.10;;;1.40;;
57317;SDS011;43157;50.982;18.132;2023-07-31T07:13:56;9.00;;;1.50;;
57317;SDS011;43157;50.982;18.132;2023-07-31T07:16:22;8.70;;;1.50;;
57317;SDS011;43157;50.982;18.132;2023-07-31T07:18:48;5.50;;;1.10;;
57317;SDS011;43157;50.982;18.132;2023-07-31T07:21:13;7.30;;;1.20;;
57317;SDS011;43157;50.982;18.132;2023-07-31T07:23:42;7.40;;;1.30;;
57317;SDS011;43157;50.982;18.132;2023-07-31T07:26:08;9.60;;;1.90;;
57317;SDS011;43157;50.982;18.132;2023-07-31T07:28:34;7.20;;;1.60;;
57317;SDS011;43157;50.982;18.132;2023-07-31T07:30:59;6.60;;;1.20;;
57317;SDS011;43157;50.982;18.132;2023-07-31T07:33:25;8.10;;;1.30;;
57317;SDS011;43157;50.982;18.132;2023-07-31T07:35:51;8.40;;;1.10;;
57317;SDS011;43157;50.982;18.132;2023-07-31T07:38:16;6.60;;;1.50;;
57317;SDS011;43157;50.982;18.132;2023-07-31T07:40:44;11.30;;;1.60;;
57317;SDS011;43157;50.982;18.132;2023-07-31T07:43:12;7.50;;;1.40;;
57317;SDS011;43157;50.982;18.132;2023-07-31T07:45:37;7.60;;;1.20;;
57317;SDS011;43157;50.982;18.132;2023-07-31T07:48:03;10.20;;;1.30;;
57317;SDS011;43157;50.982;18.132;2023-07-31T07:50:29;8.30;;;1.60;;
57317;SDS011;43157;50.982;18.132;2023-07-31T07:52:54;6.60;;;1.50;;
57317;SDS011;43157;50.982;18.132;2023-07-31T07:55:20;5.20;;;1.00;;
57317;SDS011;43157;50.982;18.132;2023-07-31T07:57:46;7.70;;;1.70;;
57317;SDS011;43157;50.982;18.132;2023-07-31T08:00:12;5.60;;;1.10;;
57317;SDS011;43157;50.982;18.132;2023-07-31T08:02:38;8.60;;;1.40;;
57317;SDS011;43157;50.982;18.132;2023-07-31T08:05:04;10.70;;;1.40;;
57317;SDS011;43157;50.982;18.132;2023-07-31T08:07:30;6.00;;;1.00;;
57317;SDS011;43157;50.982;18.132;2023-07-31T08:09:56;7.90;;;1.10;;
57317;SDS011;43157;50.982;18.132;2023-07-31T08:12:22;7.20;;;0.90;;
57317;SDS011;43157;50.982;18.132;2023-07-31T08:14:48;9.00;;;1.40;;
57317;SDS011;43157;50.982;18.132;2023-07-31T08:17:14;6.80;;;1.40;;
57317;SDS011;43157;50.982;18.132;2023-07-31T08:19:39;5.00;;;1.10;;
57317;SDS011;43157;50.982;18.132;2023-07-31T08:22:05;4.10;;;1.00;;
57317;SDS011;43157;50.982;18.132;2023-07-31T08:24:31;7.80;;;0.90;;
57317;SDS011;43157;50.982;18.132;2023-07-31T08:26:57;7.40;;;1.10;;
57317;SDS011;43157;50.982;18.132;2023-07-31T08:29:22;5.50;;;1.10;;
57317;SDS011;43157;50.982;18.132;2023-07-31T08:31:49;7.60;;;1.20;;
57317;SDS011;43157;50.982;18.132;2023-07-31T08:34:14;6.70;;;1.00;;
57317;SDS011;43157;50.982;18.132;2023-07-31T08:36:40;9.60;;;1.40;;
57317;SDS011;43157;50.982;18.132;2023-07-31T08:39:05;8.50;;;1.20;;
57317;SDS011;43157;50.982;18.132;2023-07-31T08:41:31;6.30;;;1.00;;
57317;SDS011;43157;50.982;18.132;2023-07-31T08:43:57;8.90;;;1.20;;
57317;SDS011;43157;50.982;18.132;2023-07-31T08:46:23;4.60;;;0.90;;
57317;SDS011;43157;50.982;18.132;2023-07-31T08:48:50;8.40;;;1.20;;
57317;SDS011;43157;50.982;18.132;2023-07-31T08:51:17;5.90;;;1.10;;
57317;SDS011;43157;50.982;18.132;2023-07-31T08:53:42;7.00;;;1.10;;
57317;SDS011;43157;50.982;18.132;2023-07-31T08:56:08;7.20;;;1.10;;
57317;SDS011;43157;50.982;18.132;2023-07-31T08:58:36;8.00;;;2.10;;
57317;SDS011;43157;50.982;18.132;2023-07-31T09:01:03;5.90;;;1.10;;
57317;SDS011;43157;50.982;18.132;2023-07-31T09:03:29;6.50;;;0.90;;
57317;SDS011;43157;50.982;18.132;2023-07-31T09:05:59;4.80;;;0.90;;
57317;SDS011;43157;50.982;18.132;2023-07-31T09:08:25;4.60;;;0.80;;
57317;SDS011;43157;50.982;18.132;2023-07-31T09:10:52;5.10;;;0.90;;
57317;SDS011;43157;50.982;18.132;2023-07-31T09:13:18;4.90;;;1.10;;
57317;SDS011;43157;50.982;18.132;2023-07-31T09:15:44;6.60;;;0.90;;
57317;SDS011;43157;50.982;18.132;2023-07-31T09:18:11;8.70;;;1.30;;
57317;SDS011;43157;50.982;18.132;2023-07-31T09:20:37;8.40;;;0.90;;
57317;SDS011;43157;50.982;18.132;2023-07-31T09:25:40;4.70;;;0.90;;
57317;SDS011;43157;50.982;18.132;2023-07-31T09:28:10;5.00;;;1.00;;
57317;SDS011;43157;50.982;18.132;2023-07-31T09:30:46;6.80;;;1.00;;
57317;SDS011;43157;50.982;18.132;2023-07-31T09:33:13;7.10;;;1.10;;
57317;SDS011;43157;50.982;18.132;2023-07-31T09:35:39;4.20;;;1.00;;
57317;SDS011;43157;50.982;18.132;2023-07-31T09:38:10;6.50;;;0.90;;
57317;SDS011;43157;50.982;18.132;2023-07-31T09:40:41;7.00;;;0.90;;
57317;SDS011;43157;50.982;18.132;2023-07-31T09:43:13;7.10;;;1.00;;
57317;SDS011;43157;50.982;18.132;2023-07-31T09:45:43;4.60;;;0.80;;
57317;SDS011;43157;50.982;18.132;2023-07-31T09:48:10;7.20;;;0.80;;
57317;SDS011;43157;50.982;18.132;2023-07-31T09:50:38;9.80;;;1.00;;
57317;SDS011;43157;50.982;18.132;2023-07-31T09:53:08;5.60;;;0.90;;
57317;SDS011;43157;50.982;18.132;2023-07-31T09:55:34;8.10;;;1.00;;
57317;SDS011;43157;50.982;18.132;2023-07-31T09:58:05;4.60;;;0.80;;
57317;SDS011;43157;50.982;18.132;2023-07-31T10:00:32;5.80;;;0.90;;
57317;SDS011;43157;50.982;18.132;2023-07-31T10:02:59;7.70;;;0.80;;
57317;SDS011;43157;50.982;18.132;2023-07-31T10:05:36;4.00;;;0.60;;
57317;SDS011;43157;50.982;18.132;2023-07-31T10:08:02;7.20;;;1.20;;
57317;SDS011;43157;50.982;18.132;2023-07-31T10:10:28;5.10;;;0.90;;
57317;SDS011;43157;50.982;18.132;2023-07-31T10:12:56;4.20;;;0.80;;
57317;SDS011;43157;50.982;18.132;2023-07-31T10:15:22;4.60;;;1.00;;
57317;SDS011;43157;50.982;18.132;2023-07-31T10:17:48;7.00;;;0.80;;
57317;SDS011;43157;50.982;18.132;2023-07-31T10:20:15;4.60;;;1.10;;
57317;SDS011;43157;50.982;18.132;2023-07-31T10:22:44;7.40;;;1.00;;
57317;SDS011;43157;50.982;18.132;2023-07-31T10:25:13;6.40;;;0.80;;
57317;SDS011;43157;50.982;18.132;2023-07-31T10:27:41;6.20;;;0.90;;
57317;SDS011;43157;50.982;18.132;2023-07-31T10:30:08;8.70;;;0.80;;
57317;SDS011;43157;50.982;18.132;2023-07-31T10:32:35;6.00;;;0.90;;
57317;SDS011;43157;50.982;18.132;2023-07-31T10:35:03;6.90;;;0.80;;
57317;SDS011;43157;50.982;18.132;2023-07-31T10:37:50;9.70;;;1.00;;
57317;SDS011;43157;50.982;18.132;2023-07-31T10:40:16;8.20;;;0.90;;
57317;SDS011;43157;50.982;18.132;2023-07-31T10:42:52;5.60;;;0.80;;
57317;SDS011;43157;50.982;18.132;2023-07-31T10:45:30;6.20;;;1.00;;
57317;SDS011;43157;50.982;18.132;2023-07-31T10:48:05;5.80;;;0.90;;
57317;SDS011;43157;50.982;18.132;2023-07-31T10:50:36;4.60;;;0.70;;
57317;SDS011;43157;50.982;18.132;2023-07-31T10:53:03;4.30;;;0.60;;
57317;SDS011;43157;50.982;18.132;2023-07-31T10:55:30;6.70;;;0.70;;
57317;SDS011;43157;50.982;18.132;2023-07-31T10:57:58;4.90;;;0.70;;
57317;SDS011;43157;50.982;18.132;2023-07-31T11:00:34;8.80;;;0.70;;
57317;SDS011;43157;50.982;18.132;2023-07-31T11:03:10;4.00;;;0.80;;
57317;SDS011;43157;50.982;18.132;2023-07-31T11:05:51;7.60;;;1.00;;
57317;SDS011;43157;50.982;18.132;2023-07-31T11:08:21;8.70;;;0.80;;
57317;SDS011;43157;50.982;18.132;2023-07-31T11:10:48;3.70;;;0.80;;
57317;SDS011;43157;50.982;18.132;2023-07-31T11:13:42;4.60;;;0.70;;
57317;SDS011;43157;50.982;18.132;2023-07-31T11:16:08;5.70;;;0.90;;
57317;SDS011;43157;50.982;18.132;2023-07-31T11:18:35;6.20;;;0.70;;
57317;SDS011;43157;50.982;18.132;2023-07-31T11:21:04;6.00;;;0.80;;
57317;SDS011;43157;50.982;18.132;2023-07-31T11:23:30;4.40;;;1.00;;
57317;SDS011;43157;50.982;18.132;2023-07-31T11:25:59;6.80;;;0.90;;
57317;SDS011;43157;50.982;18.132;2023-07-31T11:28:25;4.00;;;0.70;;
57317;SDS011;43157;50.982;18.132;2023-07-31T11:30:51;4.50;;;0.80;;
57317;SDS011;43157;50.982;18.132;2023-07-31T11:33:16;6.30;;;0.70;;
57317;SDS011;43157;50.982;18.132;2023-07-31T11:35:43;6.50;;;0.90;;
57317;SDS011;43157;50.982;18.132;2023-07-31T11:38:24;4.60;;;1.10;;
57317;SDS011;43157;50.982;18.132;2023-07-31T11:40:55;5.50;;;1.00;;
57317;SDS011;43157;50.982;18.132;2023-07-31T11:43:22;4.50;;;0.80;;
57317;SDS011;43157;50.982;18.132;2023-07-31T11:45:58;6.20;;;1.40;;
57317;SDS011;43157;50.982;18.132;2023-07-31T11:48:29;5.70;;;1.90;;
57317;SDS011;43157;50.982;18.132;2023-07-31T11:51:00;6.00;;;1.10;;
57317;SDS011;43157;50.982;18.132;2023-07-31T11:56:17;4.40;;;1.00;;
57317;SDS011;43157;50.982;18.132;2023-07-31T11:58:52;3.00;;;0.70;;
57317;SDS011;43157;50.982;18.132;2023-07-31T12:01:19;4.80;;;0.80;;
57317;SDS011;43157;50.982;18.132;2023-07-31T12:03:47;4.60;;;0.80;;
57317;SDS011;43157;50.982;18.132;2023-07-31T12:06:13;5.80;;;1.00;;
57317;SDS011;43157;50.982;18.132;2023-07-31T12:08:38;2.80;;;0.80;;
57317;SDS011;43157;50.982;18.132;2023-07-31T12:11:06;2.90;;;0.80;;
57317;SDS011;43157;50.982;18.132;2023-07-31T12:13:35;5.60;;;1.10;;
57317;SDS011;43157;50.982;18.132;2023-07-31T12:16:02;3.70;;;0.70;;
57317;SDS011;43157;50.982;18.132;2023-07-31T12:18:30;5.00;;;1.00;;
57317;SDS011;43157;50.982;18.132;2023-07-31T12:21:00;4.00;;;1.10;;
57317;SDS011;43157;50.982;18.132;2023-07-31T12:23:30;5.00;;;1.00;;
57317;SDS011;43157;50.982;18.132;2023-07-31T12:26:01;3.90;;;1.00;;
57317;SDS011;43157;50.982;18.132;2023-07-31T12:28:30;4.50;;;0.90;;
57317;SDS011;43157;50.982;18.132;2023-07-31T12:30:57;4.70;;;1.10;;
57317;SDS011;43157;50.982;18.132;2023-07-31T12:33:29;3.70;;;0.80;;
57317;SDS011;43157;50.982;18.132;2023-07-31T12:36:00;7.00;;;1.10;;
57317;SDS011;43157;50.982;18.132;2023-07-31T12:38:27;2.70;;;0.80;;
57317;SDS011;43157;50.982;18.132;2023-07-31T12:40:53;6.10;;;1.00;;
57317;SDS011;43157;50.982;18.132;2023-07-31T12:43:19;6.20;;;1.10;;
57317;SDS011;43157;50.982;18.132;2023-07-31T12:45:44;8.10;;;1.20;;
57317;SDS011;43157;50.982;18.132;2023-07-31T12:48:10;4.80;;;1.00;;
57317;SDS011;43157;50.982;18.132;2023-07-31T12:50:36;3.70;;;1.00;;
57317;SDS011;43157;50.982;18.132;2023-07-31T12:53:02;5.60;;;1.10;;
57317;SDS011;43157;50.982;18.132;2023-07-31T12:55:28;3.80;;;1.00;;
57317;SDS011;43157;50.982;18.132;2023-07-31T12:57:55;2.90;;;1.00;;
57317;SDS011;43157;50.982;18.132;2023-07-31T13:00:21;8.90;;;1.20;;
57317;SDS011;43157;50.982;18.132;2023-07-31T13:02:47;5.00;;;1.00;;
57317;SDS011;43157;50.982;18.132;2023-07-31T13:05:13;3.90;;;1.00;;
57317;SDS011;43157;50.982;18.132;2023-07-31T13:07:39;4.00;;;1.00;;
57317;SDS011;43157;50.982;18.132;2023-07-31T13:10:06;5.90;;;1.10;;
57317;SDS011;43157;50.982;18.132;2023-07-31T13:12:32;3.70;;;1.10;;
57317;SDS011;43157;50.982;18.132;2023-07-31T13:14:58;5.00;;;1.10;;
57317;SDS011;43157;50.982;18.132;2023-07-31T13:17:24;7.00;;;1.20;;
57317;SDS011;43157;50.982;18.132;2023-07-31T13:19:49;4.60;;;1.20;;
57317;SDS011;43157;50.982;18.132;2023-07-31T13:22:15;4.10;;;1.10;;
57317;SDS011;43157;50.982;18.132;2023-07-31T13:24:41;4.90;;;1.20;;
57317;SDS011;43157;50.982;18.132;2023-07-31T13:27:06;4.80;;;1.10;;
57317;SDS011;43157;50.982;18.132;2023-07-31T13:29:32;3.70;;;1.00;;
57317;SDS011;43157;50.982;18.132;2023-07-31T13:31:58;5.20;;;1.40;;
57317;SDS011;43157;50.982;18.132;2023-07-31T13:34:24;6.50;;;1.30;;
57317;SDS011;43157;50.982;18.132;2023-07-31T13:36:49;7.00;;;1.00;;
57317;SDS011;43157;50.982;18.132;2023-07-31T13:39:15;4.40;;;1.10;;
57317;SDS011;43157;50.982;18.132;2023-07-31T13:41:41;5.80;;;1.40;;
57317;SDS011;43157;50.982;18.132;2023-07-31T13:44:07;7.60;;;1.10;;
57317;SDS011;43157;50.982;18.132;2023-07-31T13:46:33;5.90;;;1.30;;
57317;SDS011;43157;50.982;18.132;2023-07-31T13:48:59;5.50;;;1.10;;
57317;SDS011;43157;50.982;18.132;2023-07-31T13:51:25;5.00;;;1.10;;
57317;SDS011;43157;50.982;18.132;2023-07-31T13:53:52;5.50;;;1.10;;
57317;SDS011;43157;50.982;18.132;2023-07-31T13:56:18;5.40;;;1.30;;
57317;SDS011;43157;50.982;18.132;2023-07-31T13:58:44;6.70;;;1.50;;
57317;SDS011;43157;50.982;18.132;2023-07-31T14:01:09;6.10;;;1.60;;
57317;SDS011;43157;50.982;18.132;2023-07-31T14:03:35;4.80;;;1.00;;
57317;SDS011;43157;50.982;18.132;2023-07-31T14:06:00;10.20;;;1.60;;
57317;SDS011;43157;50.982;18.132;2023-07-31T14:08:26;5.20;;;1.50;;
57317;SDS011;43157;50.982;18.132;2023-07-31T14:10:52;6.10;;;1.50;;
57317;SDS011;43157;50.982;18.132;2023-07-31T14:13:18;7.00;;;1.50;;
57317;SDS011;43157;50.982;18.132;2023-07-31T14:15:43;5.20;;;1.20;;
57317;SDS011;43157;50.982;18.132;2023-07-31T14:18:09;4.30;;;1.00;;
57317;SDS011;43157;50.982;18.132;2023-07-31T14:20:35;6.50;;;1.80;;
57317;SDS011;43157;50.982;18.132;2023-07-31T14:23:02;5.00;;;1.40;;
57317;SDS011;43157;50.982;18.132;2023-07-31T14:25:27;7.30;;;1.60;;
57317;SDS011;43157;50.982;18.132;2023-07-31T14:27:53;5.10;;;1.20;;
57317;SDS011;43157;50.982;18.132;2023-07-31T14:30:19;6.30;;;1.50;;
57317;SDS011;43157;50.982;18.132;2023-07-31T14:32:45;6.00;;;1.30;;
57317;SDS011;43157;50.982;18.132;2023-07-31T14:35:11;7.10;;;1.50;;
57317;SDS011;43157;50.982;18.132;2023-07-31T14:37:40;7.00;;;1.10;;
57317;SDS011;43157;50.982;18.132;2023-07-31T14:40:08;4.50;;;1.30;;
57317;SDS011;43157;50.982;18.132;2023-07-31T14:42:35;6.10;;;1.70;;
57317;SDS011;43157;50.982;18.132;2023-07-31T14:45:01;5.70;;;1.40;;
57317;SDS011;43157;50.982;18.132;2023-07-31T14:47:28;7.50;;;1.60;;
57317;SDS011;43157;50.982;18.132;2023-07-31T14:49:53;8.60;;;1.50;;
57317;SDS011;43157;50.982;18.132;2023-07-31T14:52:19;5.50;;;1.50;;
57317;SDS011;43157;50.982;18.132;2023-07-31T14:54:45;6.00;;;1.70;;